OCN6HP EDDF-LGSR
Flight info
| Callsign | OCN6HP |
|---|---|
| Flight time | 2h 34m |
| Altitude | 37000 |
| Route | CINDY8S/18 CINDY Z74 LAMPU DCT NOMBO Y161 MAH DCT VAVOR DCT RADIZ DCT GORPA DCT MAVAR DCT BITLA DCT KEA UL607 GENDO L607 NETIS M601 PEXAN |
| Aircraft | A320/M-SDE2E3FGIJ1LORWXYZ/HB1 |
Departure
| Time | 2026-05-06 13:35 |
|---|---|
| Airport | Frankfurt Main Airport (EDDF) |
Arrival
| Time | 2026-05-06 16:09 |
|---|---|
| Airport | Santorini International Airport (LGSR) |
| Time | Latitude | Longitude | Altitude | Speed | Heading |
|---|---|---|---|---|---|
| 2026-05-06 13:09 | 50.03937 | 8.55121 | 358 ft | 0 kts | 160° |
| 2026-05-06 13:29 | 50.03931 | 8.55124 | 351 ft | 4 kts | 160° |
| 2026-05-06 13:29 | 50.03887 | 8.55130 | 350 ft | 7 kts | 187° |
| 2026-05-06 13:29 | 50.03840 | 8.55077 | 353 ft | 10 kts | 246° |
| 2026-05-06 13:29 | 50.03813 | 8.54965 | 350 ft | 12 kts | 250° |
| 2026-05-06 13:30 | 50.03777 | 8.54813 | 355 ft | 17 kts | 250° |
| 2026-05-06 13:30 | 50.03734 | 8.54634 | 354 ft | 19 kts | 249° |
| 2026-05-06 13:30 | 50.03686 | 8.54436 | 345 ft | 21 kts | 250° |
| 2026-05-06 13:30 | 50.03636 | 8.54227 | 350 ft | 21 kts | 249° |
| 2026-05-06 13:31 | 50.03584 | 8.54014 | 338 ft | 21 kts | 249° |
| 2026-05-06 13:31 | 50.03538 | 8.53818 | 337 ft | 18 kts | 250° |
| 2026-05-06 13:31 | 50.03494 | 8.53630 | 339 ft | 19 kts | 249° |
| 2026-05-06 13:31 | 50.03446 | 8.53434 | 334 ft | 20 kts | 250° |
| 2026-05-06 13:32 | 50.03402 | 8.53247 | 333 ft | 18 kts | 249° |
| 2026-05-06 13:32 | 50.03360 | 8.53069 | 333 ft | 15 kts | 250° |
| 2026-05-06 13:32 | 50.03325 | 8.52923 | 333 ft | 15 kts | 250° |
| 2026-05-06 13:32 | 50.03287 | 8.52764 | 332 ft | 16 kts | 250° |
| 2026-05-06 13:33 | 50.03254 | 8.52635 | 332 ft | 11 kts | 240° |
| 2026-05-06 13:33 | 50.03193 | 8.52594 | 334 ft | 0 kts | 179° |
| 2026-05-06 13:34 | 50.03150 | 8.52596 | 333 ft | 31 kts | 179° |
| 2026-05-06 13:34 | 50.02688 | 8.52597 | 335 ft | 98 kts | 179° |
| 2026-05-06 13:34 | 50.01825 | 8.52607 | 333 ft | 149 kts | 180° |
| 2026-05-06 13:34 | 50.00697 | 8.52603 | 695 ft | 163 kts | 183° |
| 2026-05-06 13:35 | 49.99564 | 8.52617 | 1380 ft | 163 kts | 184° |
| 2026-05-06 13:35 | 49.98390 | 8.52620 | 1861 ft | 178 kts | 182° |
| 2026-05-06 13:35 | 49.97098 | 8.53020 | 2104 ft | 207 kts | 157° |
| 2026-05-06 13:35 | 49.95951 | 8.54567 | 2525 ft | 232 kts | 124° |
| 2026-05-06 13:36 | 49.95155 | 8.56785 | 3301 ft | 236 kts | 122° |
| 2026-05-06 13:36 | 49.94390 | 8.59050 | 4150 ft | 240 kts | 114° |
| 2026-05-06 13:36 | 49.94006 | 8.61638 | 4751 ft | 258 kts | 96° |
| 2026-05-06 13:36 | 49.93892 | 8.64540 | 5217 ft | 277 kts | 95° |
| 2026-05-06 13:37 | 49.93580 | 8.67501 | 6011 ft | 280 kts | 111° |
| 2026-05-06 13:37 | 49.92694 | 8.70177 | 6853 ft | 279 kts | 130° |
| 2026-05-06 13:37 | 49.91315 | 8.72281 | 7668 ft | 279 kts | 147° |
| 2026-05-06 13:37 | 49.89727 | 8.74030 | 8493 ft | 282 kts | 145° |
| 2026-05-06 13:38 | 49.88296 | 8.76158 | 9303 ft | 290 kts | 130° |
| 2026-05-06 13:38 | 49.87220 | 8.78830 | 10065 ft | 296 kts | 121° |
| 2026-05-06 13:38 | 49.86204 | 8.81671 | 10594 ft | 310 kts | 121° |
| 2026-05-06 13:38 | 49.85109 | 8.84700 | 10747 ft | 335 kts | 121° |
| 2026-05-06 13:39 | 49.83943 | 8.87909 | 11088 ft | 347 kts | 121° |
| 2026-05-06 13:39 | 49.82750 | 8.91188 | 11775 ft | 352 kts | 122° |
| 2026-05-06 13:39 | 49.81541 | 8.94512 | 12481 ft | 356 kts | 121° |
| 2026-05-06 13:39 | 49.80319 | 8.97867 | 13180 ft | 359 kts | 121° |
| 2026-05-06 13:40 | 49.79085 | 9.01250 | 13844 ft | 363 kts | 122° |
| 2026-05-06 13:40 | 49.77839 | 9.04663 | 14477 ft | 366 kts | 122° |
| 2026-05-06 13:40 | 49.76623 | 9.08135 | 15142 ft | 368 kts | 117° |
| 2026-05-06 13:40 | 49.75755 | 9.11876 | 15782 ft | 373 kts | 107° |
| 2026-05-06 13:41 | 49.75073 | 9.15759 | 16385 ft | 374 kts | 112° |
| 2026-05-06 13:41 | 49.73988 | 9.19416 | 16989 ft | 375 kts | 123° |
| 2026-05-06 13:41 | 49.72475 | 9.22688 | 17590 ft | 375 kts | 133° |
| 2026-05-06 13:41 | 49.70749 | 9.25726 | 18182 ft | 378 kts | 134° |
| 2026-05-06 13:42 | 49.69008 | 9.28790 | 18694 ft | 380 kts | 134° |
| 2026-05-06 13:42 | 49.67258 | 9.31875 | 19193 ft | 383 kts | 133° |
| 2026-05-06 13:42 | 49.65499 | 9.34976 | 19713 ft | 385 kts | 133° |
| 2026-05-06 13:42 | 49.63727 | 9.38102 | 20187 ft | 388 kts | 133° |
| 2026-05-06 13:43 | 49.61836 | 9.41063 | 20670 ft | 388 kts | 142° |
| 2026-05-06 13:43 | 49.59639 | 9.43480 | 21148 ft | 389 kts | 151° |
| 2026-05-06 13:43 | 49.57304 | 9.45607 | 21633 ft | 391 kts | 151° |
| 2026-05-06 13:43 | 49.54960 | 9.47737 | 22163 ft | 391 kts | 152° |
| 2026-05-06 13:44 | 49.52612 | 9.49876 | 22662 ft | 393 kts | 151° |
| 2026-05-06 13:44 | 49.50251 | 9.52029 | 23143 ft | 396 kts | 151° |
| 2026-05-06 13:44 | 49.47874 | 9.54198 | 23562 ft | 398 kts | 151° |
| 2026-05-06 13:44 | 49.45488 | 9.56379 | 23945 ft | 400 kts | 151° |
| 2026-05-06 13:45 | 49.43089 | 9.58568 | 24332 ft | 402 kts | 152° |
| 2026-05-06 13:45 | 49.38248 | 9.62963 | 25081 ft | 406 kts | 152° |
| 2026-05-06 13:45 | 49.35813 | 9.65170 | 25434 ft | 408 kts | 151° |
| 2026-05-06 13:46 | 49.33487 | 9.67707 | 25785 ft | 413 kts | 142° |
| 2026-05-06 13:46 | 49.31402 | 9.70784 | 26091 ft | 419 kts | 138° |
| 2026-05-06 13:46 | 49.29338 | 9.73954 | 26431 ft | 421 kts | 138° |
| 2026-05-06 13:46 | 49.27262 | 9.77131 | 26773 ft | 423 kts | 139° |
| 2026-05-06 13:47 | 49.25170 | 9.80316 | 27098 ft | 425 kts | 139° |
| 2026-05-06 13:47 | 49.23065 | 9.83509 | 27451 ft | 427 kts | 140° |
| 2026-05-06 13:47 | 49.20950 | 9.86714 | 27796 ft | 429 kts | 140° |
| 2026-05-06 13:47 | 49.18829 | 9.89933 | 28124 ft | 431 kts | 140° |
| 2026-05-06 13:48 | 49.16697 | 9.93169 | 28452 ft | 433 kts | 140° |
| 2026-05-06 13:48 | 49.14556 | 9.96415 | 28762 ft | 435 kts | 140° |
| 2026-05-06 13:48 | 49.12406 | 9.99668 | 29059 ft | 436 kts | 140° |
| 2026-05-06 13:48 | 49.10244 | 10.02932 | 29343 ft | 438 kts | 140° |
| 2026-05-06 13:49 | 49.08071 | 10.06206 | 29632 ft | 439 kts | 140° |
| 2026-05-06 13:49 | 49.05897 | 10.09478 | 29976 ft | 440 kts | 141° |
| 2026-05-06 13:49 | 49.03692 | 10.12711 | 30230 ft | 440 kts | 142° |
| 2026-05-06 13:49 | 49.01450 | 10.15901 | 30472 ft | 442 kts | 142° |
| 2026-05-06 13:50 | 48.99953 | 10.17998 | 30635 ft | 442 kts | 144° |
| 2026-05-06 13:50 | 48.97678 | 10.21161 | 30873 ft | 443 kts | 144° |
| 2026-05-06 13:50 | 48.95402 | 10.24325 | 31153 ft | 444 kts | 144° |
| 2026-05-06 13:50 | 48.93130 | 10.27500 | 31464 ft | 444 kts | 143° |
| 2026-05-06 13:51 | 48.90863 | 10.30686 | 31773 ft | 443 kts | 143° |
| 2026-05-06 13:51 | 48.88603 | 10.33877 | 32080 ft | 443 kts | 143° |
| 2026-05-06 13:51 | 48.86348 | 10.37064 | 32384 ft | 443 kts | 143° |
| 2026-05-06 13:51 | 48.84093 | 10.40242 | 32706 ft | 443 kts | 143° |
| 2026-05-06 13:52 | 48.81854 | 10.43450 | 32998 ft | 443 kts | 142° |
| 2026-05-06 13:52 | 48.79676 | 10.46778 | 33304 ft | 444 kts | 141° |
| 2026-05-06 13:52 | 48.77556 | 10.50189 | 33606 ft | 445 kts | 140° |
| 2026-05-06 13:52 | 48.75461 | 10.53648 | 33842 ft | 446 kts | 140° |
| 2026-05-06 13:53 | 48.73368 | 10.57115 | 34062 ft | 446 kts | 140° |
| 2026-05-06 13:53 | 48.71264 | 10.60570 | 34309 ft | 446 kts | 140° |
| 2026-05-06 13:53 | 48.69149 | 10.63990 | 34566 ft | 445 kts | 140° |
| 2026-05-06 13:53 | 48.67021 | 10.67381 | 34811 ft | 444 kts | 140° |
| 2026-05-06 13:54 | 48.64887 | 10.70754 | 35049 ft | 443 kts | 140° |
| 2026-05-06 13:54 | 48.62753 | 10.74117 | 35284 ft | 443 kts | 140° |
| 2026-05-06 13:54 | 48.60623 | 10.77470 | 35511 ft | 442 kts | 140° |
| 2026-05-06 13:54 | 48.58494 | 10.80828 | 35725 ft | 442 kts | 140° |
| 2026-05-06 13:55 | 48.56375 | 10.84194 | 35929 ft | 442 kts | 140° |
| 2026-05-06 13:55 | 48.54261 | 10.87575 | 36099 ft | 442 kts | 139° |
| 2026-05-06 13:55 | 48.52152 | 10.90954 | 36303 ft | 442 kts | 139° |
| 2026-05-06 13:55 | 48.50047 | 10.94326 | 36529 ft | 442 kts | 139° |
| 2026-05-06 13:56 | 48.47937 | 10.97692 | 36722 ft | 442 kts | 140° |
| 2026-05-06 13:56 | 48.45839 | 11.00993 | 36782 ft | 441 kts | 140° |
| 2026-05-06 13:56 | 48.41572 | 11.07624 | 36783 ft | 441 kts | 140° |
| 2026-05-06 13:57 | 48.37296 | 11.14230 | 36779 ft | 440 kts | 140° |
| 2026-05-06 13:57 | 48.33028 | 11.20840 | 36778 ft | 441 kts | 140° |
| 2026-05-06 13:58 | 48.28762 | 11.27446 | 36779 ft | 440 kts | 140° |
| 2026-05-06 13:58 | 48.24964 | 11.34744 | 36785 ft | 452 kts | 126° |
| 2026-05-06 13:59 | 48.21827 | 11.42909 | 36784 ft | 452 kts | 126° |
| 2026-05-06 13:59 | 48.18671 | 11.51061 | 36785 ft | 452 kts | 126° |
| 2026-05-06 14:00 | 48.15508 | 11.59198 | 36782 ft | 452 kts | 126° |
| 2026-05-06 14:00 | 48.12336 | 11.67335 | 36740 ft | 453 kts | 127° |
| 2026-05-06 14:01 | 48.09157 | 11.75483 | 36741 ft | 454 kts | 127° |
| 2026-05-06 14:01 | 48.05970 | 11.83636 | 36745 ft | 454 kts | 127° |
| 2026-05-06 14:02 | 48.02772 | 11.91790 | 36736 ft | 455 kts | 127° |
| 2026-05-06 14:02 | 47.99565 | 11.99925 | 36726 ft | 454 kts | 128° |
| 2026-05-06 14:03 | 47.96358 | 12.08039 | 36745 ft | 454 kts | 128° |
| 2026-05-06 14:03 | 47.92861 | 12.15760 | 36748 ft | 442 kts | 140° |
| 2026-05-06 14:04 | 47.88360 | 12.21786 | 36748 ft | 433 kts | 147° |
| 2026-05-06 14:04 | 47.83743 | 12.27560 | 36751 ft | 434 kts | 147° |
| 2026-05-06 14:05 | 47.79126 | 12.33338 | 36746 ft | 434 kts | 147° |
| 2026-05-06 14:05 | 47.74512 | 12.39106 | 36730 ft | 433 kts | 147° |
| 2026-05-06 14:06 | 47.69888 | 12.44865 | 36741 ft | 433 kts | 147° |
| 2026-05-06 14:06 | 47.65261 | 12.50589 | 36748 ft | 433 kts | 147° |
| 2026-05-06 14:07 | 47.60837 | 12.56707 | 36752 ft | 440 kts | 140° |
| 2026-05-06 14:07 | 47.56691 | 12.63369 | 36729 ft | 439 kts | 140° |
| 2026-05-06 14:08 | 47.52537 | 12.69994 | 36714 ft | 440 kts | 140° |
| 2026-05-06 14:08 | 47.48365 | 12.76622 | 36710 ft | 440 kts | 141° |
| 2026-05-06 14:09 | 47.44207 | 12.83207 | 36745 ft | 442 kts | 140° |
| 2026-05-06 14:09 | 47.40018 | 12.89828 | 36759 ft | 441 kts | 141° |
| 2026-05-06 14:10 | 47.35831 | 12.96441 | 36766 ft | 441 kts | 140° |
| 2026-05-06 14:10 | 47.31658 | 13.03023 | 36749 ft | 439 kts | 141° |
| 2026-05-06 14:11 | 47.27464 | 13.09610 | 36817 ft | 441 kts | 141° |
| 2026-05-06 14:11 | 47.23270 | 13.16185 | 36770 ft | 440 kts | 140° |
| 2026-05-06 14:12 | 47.19064 | 13.22754 | 36798 ft | 441 kts | 140° |
| 2026-05-06 14:12 | 47.14848 | 13.29329 | 36803 ft | 442 kts | 140° |
| 2026-05-06 14:13 | 47.10601 | 13.35935 | 36823 ft | 447 kts | 140° |
| 2026-05-06 14:13 | 47.06329 | 13.42564 | 36862 ft | 448 kts | 140° |
| 2026-05-06 14:14 | 47.02049 | 13.49194 | 36872 ft | 448 kts | 140° |
| 2026-05-06 14:14 | 46.97768 | 13.55810 | 36872 ft | 447 kts | 139° |
| 2026-05-06 14:15 | 46.93476 | 13.62415 | 36835 ft | 448 kts | 139° |
| 2026-05-06 14:15 | 46.89171 | 13.69019 | 36852 ft | 448 kts | 139° |
| 2026-05-06 14:16 | 46.84863 | 13.75612 | 36862 ft | 449 kts | 139° |
| 2026-05-06 14:16 | 46.80543 | 13.82210 | 36865 ft | 449 kts | 139° |
| 2026-05-06 14:17 | 46.76224 | 13.88797 | 36875 ft | 449 kts | 139° |
| 2026-05-06 14:17 | 46.71903 | 13.95366 | 36847 ft | 449 kts | 139° |
| 2026-05-06 14:18 | 46.67586 | 14.01923 | 36871 ft | 448 kts | 139° |
| 2026-05-06 14:18 | 46.63270 | 14.08464 | 36887 ft | 448 kts | 139° |
| 2026-05-06 14:19 | 46.58948 | 14.14983 | 36890 ft | 448 kts | 139° |
| 2026-05-06 14:19 | 46.54624 | 14.21488 | 36896 ft | 448 kts | 139° |
| 2026-05-06 14:20 | 46.50297 | 14.27992 | 36889 ft | 447 kts | 139° |
| 2026-05-06 14:20 | 46.45986 | 14.34469 | 36910 ft | 446 kts | 139° |
| 2026-05-06 14:21 | 46.41669 | 14.40916 | 36910 ft | 445 kts | 140° |
| 2026-05-06 14:21 | 46.37346 | 14.47346 | 36953 ft | 445 kts | 139° |
| 2026-05-06 14:22 | 46.33030 | 14.53767 | 36957 ft | 445 kts | 140° |
| 2026-05-06 14:22 | 46.28716 | 14.60174 | 36930 ft | 445 kts | 139° |
| 2026-05-06 14:23 | 46.24395 | 14.66575 | 36937 ft | 445 kts | 139° |
| 2026-05-06 14:23 | 46.20069 | 14.72971 | 36946 ft | 445 kts | 140° |
| 2026-05-06 14:24 | 46.15735 | 14.79352 | 36946 ft | 445 kts | 140° |
| 2026-05-06 14:24 | 46.11396 | 14.85724 | 36949 ft | 446 kts | 140° |
| 2026-05-06 14:25 | 46.07083 | 14.92048 | 36934 ft | 445 kts | 139° |
| 2026-05-06 14:25 | 46.02741 | 14.98404 | 36943 ft | 445 kts | 140° |
| 2026-05-06 14:26 | 45.98399 | 15.04749 | 36943 ft | 445 kts | 140° |
| 2026-05-06 14:26 | 45.94053 | 15.11081 | 36949 ft | 445 kts | 140° |
| 2026-05-06 14:27 | 45.89707 | 15.17398 | 36910 ft | 444 kts | 140° |
| 2026-05-06 14:27 | 45.85321 | 15.23739 | 36915 ft | 445 kts | 140° |
| 2026-05-06 14:28 | 45.80964 | 15.30032 | 36920 ft | 445 kts | 140° |
| 2026-05-06 14:28 | 45.76603 | 15.36319 | 36923 ft | 444 kts | 140° |
| 2026-05-06 14:29 | 45.72193 | 15.42511 | 36926 ft | 443 kts | 141° |
| 2026-05-06 14:29 | 45.67747 | 15.48639 | 36941 ft | 444 kts | 141° |
| 2026-05-06 14:30 | 45.63300 | 15.54760 | 36939 ft | 444 kts | 141° |
| 2026-05-06 14:30 | 45.58857 | 15.60881 | 36940 ft | 444 kts | 141° |
| 2026-05-06 14:31 | 45.54419 | 15.67003 | 36943 ft | 444 kts | 141° |
| 2026-05-06 14:31 | 45.49976 | 15.73122 | 36945 ft | 444 kts | 141° |
| 2026-05-06 14:32 | 45.45527 | 15.79228 | 36923 ft | 444 kts | 141° |
| 2026-05-06 14:32 | 45.41071 | 15.85320 | 36933 ft | 444 kts | 141° |
| 2026-05-06 14:33 | 45.36610 | 15.91412 | 36948 ft | 444 kts | 141° |
| 2026-05-06 14:33 | 45.32152 | 15.97492 | 36939 ft | 444 kts | 142° |
| 2026-05-06 14:34 | 45.28442 | 16.02532 | 36927 ft | 444 kts | 142° |
| 2026-05-06 14:34 | 45.23250 | 16.09562 | 36939 ft | 443 kts | 142° |
| 2026-05-06 14:35 | 45.18787 | 16.15599 | 36942 ft | 443 kts | 142° |
| 2026-05-06 14:35 | 45.14325 | 16.21629 | 36942 ft | 443 kts | 142° |
| 2026-05-06 14:36 | 45.10587 | 16.26666 | 36944 ft | 443 kts | 142° |
| 2026-05-06 14:36 | 45.06119 | 16.32669 | 36919 ft | 443 kts | 142° |
| 2026-05-06 14:37 | 45.01648 | 16.38666 | 36918 ft | 444 kts | 142° |
| 2026-05-06 14:37 | 44.97194 | 16.44631 | 36914 ft | 444 kts | 142° |
| 2026-05-06 14:38 | 44.92702 | 16.50628 | 36921 ft | 445 kts | 142° |
| 2026-05-06 14:38 | 44.88168 | 16.56658 | 36923 ft | 445 kts | 142° |
| 2026-05-06 14:39 | 44.83661 | 16.62650 | 36917 ft | 446 kts | 142° |
| 2026-05-06 14:39 | 44.79142 | 16.68640 | 36917 ft | 446 kts | 142° |
| 2026-05-06 14:40 | 44.74620 | 16.74623 | 36924 ft | 446 kts | 142° |
| 2026-05-06 14:40 | 44.70095 | 16.80604 | 36929 ft | 447 kts | 142° |
| 2026-05-06 14:41 | 44.65566 | 16.86573 | 36915 ft | 446 kts | 141° |
| 2026-05-06 14:41 | 44.61030 | 16.92522 | 36936 ft | 446 kts | 142° |
| 2026-05-06 14:42 | 44.56523 | 16.98421 | 36953 ft | 446 kts | 142° |
| 2026-05-06 14:42 | 44.51994 | 17.04360 | 36953 ft | 446 kts | 141° |
| 2026-05-06 14:43 | 44.47432 | 17.10323 | 36967 ft | 445 kts | 142° |
| 2026-05-06 14:43 | 44.42927 | 17.16181 | 36949 ft | 445 kts | 142° |
| 2026-05-06 14:44 | 44.38389 | 17.22066 | 36957 ft | 445 kts | 142° |
| 2026-05-06 14:45 | 44.31552 | 17.30936 | 36967 ft | 445 kts | 141° |
| 2026-05-06 14:45 | 44.27018 | 17.36817 | 36978 ft | 445 kts | 142° |
| 2026-05-06 14:46 | 44.22471 | 17.42673 | 36952 ft | 445 kts | 142° |
| 2026-05-06 14:46 | 44.17916 | 17.48519 | 36965 ft | 445 kts | 141° |
| 2026-05-06 14:47 | 44.13354 | 17.54370 | 36965 ft | 446 kts | 142° |
| 2026-05-06 14:47 | 44.08789 | 17.60213 | 36966 ft | 446 kts | 142° |
| 2026-05-06 14:48 | 44.04219 | 17.66059 | 36955 ft | 446 kts | 141° |
| 2026-05-06 14:48 | 43.99651 | 17.71905 | 36955 ft | 447 kts | 141° |
| 2026-05-06 14:49 | 43.95070 | 17.77750 | 36962 ft | 448 kts | 141° |
| 2026-05-06 14:49 | 43.90471 | 17.83585 | 36964 ft | 448 kts | 141° |
| 2026-05-06 14:50 | 43.85863 | 17.89411 | 36974 ft | 448 kts | 141° |
| 2026-05-06 14:50 | 43.81253 | 17.95239 | 36962 ft | 449 kts | 142° |
| 2026-05-06 14:51 | 43.76634 | 18.01067 | 36972 ft | 449 kts | 142° |
| 2026-05-06 14:51 | 43.72007 | 18.06888 | 36970 ft | 450 kts | 141° |
| 2026-05-06 14:52 | 43.67373 | 18.12707 | 36976 ft | 450 kts | 141° |
| 2026-05-06 14:52 | 43.62739 | 18.18516 | 36980 ft | 450 kts | 141° |
| 2026-05-06 14:53 | 43.58130 | 18.24272 | 37009 ft | 450 kts | 141° |
| 2026-05-06 14:53 | 43.53491 | 18.30059 | 37011 ft | 450 kts | 141° |
| 2026-05-06 14:54 | 43.48847 | 18.35847 | 37026 ft | 450 kts | 142° |
| 2026-05-06 14:54 | 43.44194 | 18.41626 | 37027 ft | 451 kts | 142° |
| 2026-05-06 14:55 | 43.39529 | 18.47415 | 37005 ft | 452 kts | 141° |
| 2026-05-06 14:55 | 43.34855 | 18.53195 | 37005 ft | 452 kts | 141° |
| 2026-05-06 14:56 | 43.30179 | 18.58962 | 37014 ft | 452 kts | 141° |
| 2026-05-06 14:56 | 43.25486 | 18.64744 | 37028 ft | 454 kts | 141° |
| 2026-05-06 14:57 | 43.20781 | 18.70531 | 37038 ft | 454 kts | 142° |
| 2026-05-06 14:57 | 43.16082 | 18.76296 | 37041 ft | 454 kts | 141° |
| 2026-05-06 14:58 | 43.11374 | 18.82061 | 37046 ft | 454 kts | 141° |
| 2026-05-06 14:58 | 43.06657 | 18.87821 | 37051 ft | 455 kts | 141° |
| 2026-05-06 14:59 | 43.01936 | 18.93575 | 37051 ft | 455 kts | 142° |
| 2026-05-06 14:59 | 42.97207 | 18.99320 | 37060 ft | 455 kts | 142° |
| 2026-05-06 15:00 | 42.92482 | 19.05055 | 37060 ft | 455 kts | 142° |
| 2026-05-06 15:00 | 42.87718 | 19.10826 | 37068 ft | 455 kts | 142° |
| 2026-05-06 15:01 | 42.82971 | 19.16562 | 37069 ft | 456 kts | 142° |
| 2026-05-06 15:01 | 42.78212 | 19.22285 | 37072 ft | 457 kts | 142° |
| 2026-05-06 15:02 | 42.73457 | 19.28010 | 37060 ft | 457 kts | 142° |
| 2026-05-06 15:02 | 42.68726 | 19.33693 | 37073 ft | 457 kts | 142° |
| 2026-05-06 15:03 | 42.63931 | 19.39440 | 37082 ft | 457 kts | 142° |
| 2026-05-06 15:03 | 42.59150 | 19.45152 | 37098 ft | 458 kts | 142° |
| 2026-05-06 15:04 | 42.54367 | 19.50854 | 37094 ft | 458 kts | 142° |
| 2026-05-06 15:04 | 42.49583 | 19.56552 | 37085 ft | 458 kts | 142° |
| 2026-05-06 15:05 | 42.44793 | 19.62246 | 37095 ft | 458 kts | 142° |
| 2026-05-06 15:05 | 42.40003 | 19.67931 | 37093 ft | 458 kts | 142° |
| 2026-05-06 15:06 | 42.35236 | 19.73566 | 37091 ft | 458 kts | 142° |
| 2026-05-06 15:06 | 42.30436 | 19.79228 | 37087 ft | 458 kts | 142° |
| 2026-05-06 15:07 | 42.25629 | 19.84894 | 37070 ft | 459 kts | 142° |
| 2026-05-06 15:07 | 42.20803 | 19.90552 | 37075 ft | 460 kts | 142° |
| 2026-05-06 15:08 | 42.15969 | 19.96213 | 37076 ft | 460 kts | 142° |
| 2026-05-06 15:08 | 42.11135 | 20.01874 | 37078 ft | 460 kts | 142° |
| 2026-05-06 15:09 | 42.06298 | 20.07532 | 37077 ft | 461 kts | 142° |
| 2026-05-06 15:09 | 42.01450 | 20.13180 | 37069 ft | 461 kts | 143° |
| 2026-05-06 15:10 | 41.96600 | 20.18822 | 37070 ft | 461 kts | 143° |
| 2026-05-06 15:10 | 41.91736 | 20.24468 | 37079 ft | 462 kts | 142° |
| 2026-05-06 15:11 | 41.86870 | 20.30102 | 37077 ft | 462 kts | 142° |
| 2026-05-06 15:11 | 41.82248 | 20.35449 | 37082 ft | 462 kts | 143° |
| 2026-05-06 15:12 | 41.77383 | 20.41069 | 37076 ft | 462 kts | 142° |
| 2026-05-06 15:12 | 41.72507 | 20.46686 | 37082 ft | 462 kts | 142° |
| 2026-05-06 15:13 | 41.67628 | 20.52290 | 37077 ft | 463 kts | 142° |
| 2026-05-06 15:13 | 41.62671 | 20.57755 | 37077 ft | 461 kts | 145° |
| 2026-05-06 15:14 | 41.57608 | 20.63026 | 37069 ft | 461 kts | 146° |
| 2026-05-06 15:14 | 41.52530 | 20.68266 | 37060 ft | 462 kts | 145° |
| 2026-05-06 15:15 | 41.47507 | 20.73514 | 37079 ft | 462 kts | 145° |
| 2026-05-06 15:15 | 41.42471 | 20.78822 | 37086 ft | 462 kts | 144° |
| 2026-05-06 15:16 | 41.37429 | 20.84123 | 37088 ft | 462 kts | 144° |
| 2026-05-06 15:16 | 41.32372 | 20.89413 | 37090 ft | 462 kts | 144° |
| 2026-05-06 15:17 | 41.27307 | 20.94689 | 37084 ft | 463 kts | 144° |
| 2026-05-06 15:17 | 41.22241 | 20.99967 | 37086 ft | 465 kts | 144° |
| 2026-05-06 15:18 | 41.17096 | 21.05315 | 37084 ft | 475 kts | 144° |
| 2026-05-06 15:18 | 41.12704 | 21.09864 | 37075 ft | 480 kts | 144° |
| 2026-05-06 15:19 | 41.07461 | 21.15299 | 37056 ft | 482 kts | 144° |
| 2026-05-06 15:19 | 41.02168 | 21.20776 | 37046 ft | 483 kts | 144° |
| 2026-05-06 15:20 | 40.96860 | 21.26240 | 37056 ft | 484 kts | 144° |
| 2026-05-06 15:20 | 40.91551 | 21.31704 | 37045 ft | 484 kts | 144° |
| 2026-05-06 15:21 | 40.86226 | 21.37141 | 37044 ft | 483 kts | 146° |
| 2026-05-06 15:21 | 40.80777 | 21.42335 | 37042 ft | 483 kts | 147° |
| 2026-05-06 15:22 | 40.75256 | 21.47385 | 37042 ft | 483 kts | 148° |
| 2026-05-06 15:22 | 40.69750 | 21.52457 | 37045 ft | 483 kts | 147° |
| 2026-05-06 15:23 | 40.64264 | 21.57574 | 37037 ft | 483 kts | 147° |
| 2026-05-06 15:23 | 40.58784 | 21.62698 | 37039 ft | 483 kts | 147° |
| 2026-05-06 15:24 | 40.53300 | 21.67806 | 37048 ft | 483 kts | 147° |
| 2026-05-06 15:24 | 40.47807 | 21.72901 | 37046 ft | 483 kts | 147° |
| 2026-05-06 15:25 | 40.42314 | 21.77985 | 37053 ft | 483 kts | 147° |
| 2026-05-06 15:25 | 40.36817 | 21.83053 | 37058 ft | 483 kts | 147° |
| 2026-05-06 15:26 | 40.31317 | 21.88116 | 37056 ft | 483 kts | 147° |
| 2026-05-06 15:26 | 40.25814 | 21.93179 | 37048 ft | 483 kts | 147° |
| 2026-05-06 15:27 | 40.20310 | 21.98237 | 37046 ft | 484 kts | 147° |
| 2026-05-06 15:27 | 40.14802 | 22.03291 | 37042 ft | 484 kts | 147° |
| 2026-05-06 15:28 | 40.09287 | 22.08332 | 37035 ft | 484 kts | 147° |
| 2026-05-06 15:28 | 40.03770 | 22.13363 | 37027 ft | 484 kts | 147° |
| 2026-05-06 15:29 | 39.98244 | 22.18385 | 37017 ft | 484 kts | 147° |
| 2026-05-06 15:29 | 39.92715 | 22.23401 | 37018 ft | 485 kts | 147° |
| 2026-05-06 15:30 | 39.87182 | 22.28425 | 37016 ft | 485 kts | 147° |
| 2026-05-06 15:30 | 39.81684 | 22.33407 | 37018 ft | 485 kts | 147° |
| 2026-05-06 15:31 | 39.76145 | 22.38413 | 37013 ft | 485 kts | 147° |
| 2026-05-06 15:31 | 39.70605 | 22.43413 | 37016 ft | 485 kts | 147° |
| 2026-05-06 15:32 | 39.62286 | 22.50887 | 37021 ft | 485 kts | 147° |
| 2026-05-06 15:32 | 39.56729 | 22.55864 | 37019 ft | 486 kts | 147° |
| 2026-05-06 15:33 | 39.51170 | 22.60844 | 37020 ft | 486 kts | 147° |
| 2026-05-06 15:33 | 39.45611 | 22.65824 | 37022 ft | 486 kts | 147° |
| 2026-05-06 15:34 | 39.40043 | 22.70789 | 37029 ft | 486 kts | 147° |
| 2026-05-06 15:34 | 39.34470 | 22.75743 | 37031 ft | 486 kts | 147° |
| 2026-05-06 15:35 | 39.28897 | 22.80689 | 37027 ft | 486 kts | 147° |
| 2026-05-06 15:35 | 39.23319 | 22.85629 | 37023 ft | 486 kts | 147° |
| 2026-05-06 15:36 | 39.17738 | 22.90565 | 37023 ft | 487 kts | 147° |
| 2026-05-06 15:36 | 39.12153 | 22.95500 | 37031 ft | 487 kts | 147° |
| 2026-05-06 15:37 | 39.06573 | 23.00429 | 37037 ft | 487 kts | 147° |
| 2026-05-06 15:37 | 39.00984 | 23.05350 | 37042 ft | 487 kts | 147° |
| 2026-05-06 15:38 | 38.95390 | 23.10258 | 37037 ft | 487 kts | 148° |
| 2026-05-06 15:38 | 38.89792 | 23.15152 | 37040 ft | 487 kts | 147° |
| 2026-05-06 15:39 | 38.84226 | 23.20012 | 37035 ft | 487 kts | 147° |
| 2026-05-06 15:39 | 38.78623 | 23.24909 | 37040 ft | 487 kts | 147° |
| 2026-05-06 15:40 | 38.73019 | 23.29800 | 37026 ft | 487 kts | 148° |
| 2026-05-06 15:40 | 38.67411 | 23.34676 | 37035 ft | 487 kts | 148° |
| 2026-05-06 15:41 | 38.61794 | 23.39537 | 37046 ft | 487 kts | 148° |
| 2026-05-06 15:41 | 38.56179 | 23.44399 | 37051 ft | 487 kts | 147° |
| 2026-05-06 15:42 | 38.50561 | 23.49256 | 37045 ft | 488 kts | 148° |
| 2026-05-06 15:42 | 38.44935 | 23.54104 | 37038 ft | 488 kts | 148° |
| 2026-05-06 15:43 | 38.39304 | 23.58958 | 37041 ft | 489 kts | 148° |
| 2026-05-06 15:43 | 38.33670 | 23.63806 | 37050 ft | 489 kts | 148° |
| 2026-05-06 15:44 | 38.28028 | 23.68639 | 37050 ft | 489 kts | 148° |
| 2026-05-06 15:44 | 38.22382 | 23.73470 | 37060 ft | 489 kts | 148° |
| 2026-05-06 15:45 | 38.16734 | 23.78303 | 37055 ft | 490 kts | 148° |
| 2026-05-06 15:45 | 38.11077 | 23.83128 | 37053 ft | 490 kts | 148° |
| 2026-05-06 15:46 | 38.05410 | 23.87954 | 37058 ft | 491 kts | 148° |
| 2026-05-06 15:46 | 37.99734 | 23.92767 | 37061 ft | 491 kts | 148° |
| 2026-05-06 15:47 | 37.94060 | 23.97581 | 37031 ft | 492 kts | 148° |
| 2026-05-06 15:47 | 37.91214 | 23.99994 | 36598 ft | 491 kts | 148° |
| 2026-05-06 15:47 | 37.88369 | 24.02403 | 36048 ft | 494 kts | 148° |
| 2026-05-06 15:48 | 37.85498 | 24.04830 | 35118 ft | 495 kts | 148° |
| 2026-05-06 15:48 | 37.82635 | 24.07250 | 34202 ft | 496 kts | 148° |
| 2026-05-06 15:48 | 37.79752 | 24.09682 | 33170 ft | 500 kts | 148° |
| 2026-05-06 15:48 | 37.76850 | 24.12127 | 32603 ft | 503 kts | 148° |
| 2026-05-06 15:49 | 37.73930 | 24.14586 | 31919 ft | 507 kts | 148° |
| 2026-05-06 15:49 | 37.70986 | 24.17061 | 31245 ft | 508 kts | 148° |
| 2026-05-06 15:49 | 37.68043 | 24.19534 | 30576 ft | 509 kts | 148° |
| 2026-05-06 15:49 | 37.65091 | 24.22011 | 29871 ft | 510 kts | 148° |
| 2026-05-06 15:50 | 37.62150 | 24.24479 | 29235 ft | 504 kts | 147° |
| 2026-05-06 15:50 | 37.59299 | 24.26872 | 28875 ft | 481 kts | 147° |
| 2026-05-06 15:50 | 37.56541 | 24.29185 | 27946 ft | 470 kts | 147° |
| 2026-05-06 15:50 | 37.53863 | 24.31405 | 27416 ft | 451 kts | 148° |
| 2026-05-06 15:51 | 37.51265 | 24.33484 | 26912 ft | 434 kts | 149° |
| 2026-05-06 15:51 | 37.48745 | 24.35448 | 26405 ft | 419 kts | 149° |
| 2026-05-06 15:51 | 37.46304 | 24.37332 | 25950 ft | 405 kts | 149° |
| 2026-05-06 15:51 | 37.43945 | 24.39153 | 25505 ft | 403 kts | 149° |
| 2026-05-06 15:52 | 37.41555 | 24.41005 | 25049 ft | 403 kts | 149° |
| 2026-05-06 15:52 | 37.39178 | 24.42859 | 24602 ft | 402 kts | 148° |
| 2026-05-06 15:52 | 37.36799 | 24.44721 | 24147 ft | 402 kts | 148° |
| 2026-05-06 15:52 | 37.34435 | 24.46574 | 23697 ft | 400 kts | 148° |
| 2026-05-06 15:53 | 37.32077 | 24.48424 | 23198 ft | 398 kts | 148° |
| 2026-05-06 15:53 | 37.29735 | 24.50258 | 22743 ft | 396 kts | 148° |
| 2026-05-06 15:53 | 37.27405 | 24.52075 | 22293 ft | 393 kts | 148° |
| 2026-05-06 15:53 | 37.25084 | 24.53883 | 21832 ft | 391 kts | 148° |
| 2026-05-06 15:54 | 37.22775 | 24.55681 | 21374 ft | 390 kts | 148° |
| 2026-05-06 15:54 | 37.20477 | 24.57473 | 20905 ft | 389 kts | 148° |
| 2026-05-06 15:54 | 37.18182 | 24.59263 | 20439 ft | 388 kts | 148° |
| 2026-05-06 15:54 | 37.15895 | 24.61047 | 19972 ft | 387 kts | 148° |
| 2026-05-06 15:55 | 37.13608 | 24.62827 | 19497 ft | 386 kts | 149° |
| 2026-05-06 15:55 | 37.11327 | 24.64602 | 19035 ft | 386 kts | 149° |
| 2026-05-06 15:55 | 37.09048 | 24.66374 | 18569 ft | 385 kts | 149° |
| 2026-05-06 15:55 | 37.06771 | 24.68142 | 18069 ft | 385 kts | 149° |
| 2026-05-06 15:56 | 37.04501 | 24.69902 | 17600 ft | 382 kts | 149° |
| 2026-05-06 15:56 | 37.02249 | 24.71647 | 17145 ft | 380 kts | 149° |
| 2026-05-06 15:56 | 37.00007 | 24.73382 | 16697 ft | 377 kts | 149° |
| 2026-05-06 15:56 | 36.97782 | 24.75103 | 16251 ft | 375 kts | 149° |
| 2026-05-06 15:57 | 36.95569 | 24.76813 | 15793 ft | 373 kts | 148° |
| 2026-05-06 15:57 | 36.93365 | 24.78516 | 15362 ft | 371 kts | 148° |
| 2026-05-06 15:57 | 36.91173 | 24.80211 | 14917 ft | 370 kts | 148° |
| 2026-05-06 15:57 | 36.88991 | 24.81902 | 14464 ft | 368 kts | 148° |
| 2026-05-06 15:58 | 36.86818 | 24.83586 | 14003 ft | 367 kts | 148° |
| 2026-05-06 15:58 | 36.84652 | 24.85264 | 13527 ft | 365 kts | 148° |
| 2026-05-06 15:58 | 36.82500 | 24.86931 | 13055 ft | 363 kts | 148° |
| 2026-05-06 15:58 | 36.80365 | 24.88582 | 12600 ft | 360 kts | 148° |
| 2026-05-06 15:59 | 36.78246 | 24.90218 | 12133 ft | 357 kts | 148° |
| 2026-05-06 15:59 | 36.76141 | 24.91843 | 11671 ft | 354 kts | 148° |
| 2026-05-06 15:59 | 36.74054 | 24.93453 | 11208 ft | 352 kts | 147° |
| 2026-05-06 15:59 | 36.72144 | 24.95322 | 10739 ft | 348 kts | 133° |
| 2026-05-06 16:00 | 36.70729 | 24.97739 | 10325 ft | 343 kts | 116° |
| 2026-05-06 16:00 | 36.69926 | 25.00414 | 10184 ft | 317 kts | 101° |
| 2026-05-06 16:00 | 36.69591 | 25.03043 | 9835 ft | 301 kts | 95° |
| 2026-05-06 16:00 | 36.69321 | 25.05589 | 9473 ft | 293 kts | 95° |
| 2026-05-06 16:01 | 36.69057 | 25.08116 | 9300 ft | 296 kts | 95° |
| 2026-05-06 16:01 | 36.68791 | 25.10654 | 8935 ft | 295 kts | 95° |
| 2026-05-06 16:01 | 36.68526 | 25.13184 | 8549 ft | 293 kts | 95° |
| 2026-05-06 16:01 | 36.68263 | 25.15695 | 8164 ft | 292 kts | 95° |
| 2026-05-06 16:02 | 36.67973 | 25.18187 | 7775 ft | 290 kts | 101° |
| 2026-05-06 16:02 | 36.67465 | 25.20616 | 7403 ft | 289 kts | 103° |
| 2026-05-06 16:02 | 36.66947 | 25.23023 | 7026 ft | 287 kts | 103° |
| 2026-05-06 16:02 | 36.66430 | 25.25416 | 6645 ft | 282 kts | 104° |
| 2026-05-06 16:03 | 36.65930 | 25.27724 | 6274 ft | 270 kts | 104° |
| 2026-05-06 16:03 | 36.65451 | 25.29933 | 5920 ft | 258 kts | 104° |
| 2026-05-06 16:03 | 36.64995 | 25.32046 | 5588 ft | 248 kts | 104° |
| 2026-05-06 16:03 | 36.64548 | 25.34071 | 5266 ft | 238 kts | 108° |
| 2026-05-06 16:04 | 36.63773 | 25.35841 | 4960 ft | 230 kts | 130° |
| 2026-05-06 16:04 | 36.62599 | 25.37113 | 4679 ft | 219 kts | 152° |
| 2026-05-06 16:04 | 36.61702 | 25.37642 | 4488 ft | 214 kts | 162° |
| 2026-05-06 16:04 | 36.60335 | 25.38284 | 4155 ft | 206 kts | 161° |
| 2026-05-06 16:05 | 36.59008 | 25.38909 | 3852 ft | 202 kts | 162° |
| 2026-05-06 16:05 | 36.57700 | 25.39523 | 3566 ft | 200 kts | 161° |
| 2026-05-06 16:05 | 36.56401 | 25.40137 | 3314 ft | 199 kts | 161° |
| 2026-05-06 16:05 | 36.55114 | 25.40745 | 3036 ft | 197 kts | 161° |
| 2026-05-06 16:06 | 36.53840 | 25.41346 | 2773 ft | 195 kts | 161° |
| 2026-05-06 16:06 | 36.52578 | 25.41944 | 2512 ft | 193 kts | 161° |
| 2026-05-06 16:06 | 36.51333 | 25.42532 | 2281 ft | 191 kts | 161° |
| 2026-05-06 16:06 | 36.50101 | 25.43112 | 2019 ft | 185 kts | 161° |
| 2026-05-06 16:07 | 36.48944 | 25.43656 | 1795 ft | 171 kts | 161° |
| 2026-05-06 16:07 | 36.47865 | 25.44164 | 1564 ft | 161 kts | 161° |
| 2026-05-06 16:07 | 36.46852 | 25.44641 | 1372 ft | 149 kts | 161° |
| 2026-05-06 16:07 | 36.45900 | 25.45093 | 1172 ft | 144 kts | 161° |
| 2026-05-06 16:08 | 36.44971 | 25.45529 | 998 ft | 142 kts | 161° |
| 2026-05-06 16:08 | 36.44043 | 25.45961 | 809 ft | 143 kts | 160° |
| 2026-05-06 16:08 | 36.43103 | 25.46397 | 623 ft | 144 kts | 158° |
| 2026-05-06 16:08 | 36.42165 | 25.46843 | 420 ft | 145 kts | 158° |
| 2026-05-06 16:09 | 36.41234 | 25.47298 | 221 ft | 143 kts | 158° |
| 2026-05-06 16:09 | 36.40320 | 25.47730 | 89 ft | 131 kts | 158° |
| 2026-05-06 16:09 | 36.39741 | 25.48001 | 72 ft | 45 kts | 159° |
| 2026-05-06 16:09 | 36.39603 | 25.48065 | 70 ft | 20 kts | 159° |
| 2026-05-06 16:10 | 36.39423 | 25.48149 | 64 ft | 32 kts | 158° |
| 2026-05-06 16:10 | 36.39206 | 25.48252 | 57 ft | 31 kts | 159° |
| 2026-05-06 16:10 | 36.39059 | 25.48315 | 54 ft | 16 kts | 182° |
| 2026-05-06 16:10 | 36.39004 | 25.48205 | 56 ft | 15 kts | 271° |
| 2026-05-06 16:11 | 36.39082 | 25.48143 | 56 ft | 14 kts | 340° |
| 2026-05-06 16:11 | 36.39176 | 25.48101 | 62 ft | 16 kts | 340° |
| 2026-05-06 16:11 | 36.39285 | 25.48047 | 63 ft | 19 kts | 339° |
| 2026-05-06 16:11 | 36.39415 | 25.47985 | 67 ft | 20 kts | 339° |
| 2026-05-06 16:12 | 36.39553 | 25.47920 | 67 ft | 22 kts | 339° |
| 2026-05-06 16:12 | 36.39700 | 25.47852 | 83 ft | 23 kts | 339° |
| 2026-05-06 16:12 | 36.39849 | 25.47781 | 88 ft | 23 kts | 339° |
| 2026-05-06 16:12 | 36.40002 | 25.47708 | 86 ft | 24 kts | 339° |
| 2026-05-06 16:13 | 36.40159 | 25.47634 | 89 ft | 24 kts | 340° |
| 2026-05-06 16:13 | 36.40319 | 25.47558 | 89 ft | 24 kts | 339° |
| 2026-05-06 16:13 | 36.40416 | 25.47506 | 91 ft | 11 kts | 312° |
| 2026-05-06 16:13 | 36.40426 | 25.47426 | 93 ft | 8 kts | 297° |
| 2026-05-06 16:14 | 36.40433 | 25.47385 | 90 ft | 4 kts | 255° |
| 2026-05-06 16:14 | 36.40424 | 25.47357 | 94 ft | 3 kts | 248° |
| 2026-05-06 16:14 | 36.40422 | 25.47352 | 94 ft | 0 kts | 249° |